createdAt,value
2023-04-13T00:00:03.433Z,13.74
2023-04-13T00:01:10.476Z,13.75
2023-04-13T00:02:04.498Z,13.72
2023-04-13T00:03:00.551Z,13.78
2023-04-13T00:03:54.667Z,13.81
2023-04-13T00:04:49.514Z,13.80
2023-04-13T00:05:44.564Z,13.69
2023-04-13T00:06:31.461Z,13.49
2023-04-13T00:07:05.592Z,13.73
2023-04-13T00:07:54.479Z,13.77
2023-04-13T00:08:30.673Z,13.75
2023-04-13T00:09:17.435Z,13.80
2023-04-13T00:09:51.496Z,13.84
2023-04-13T00:10:42.443Z,13.74
2023-04-13T00:11:17.757Z,13.76
2023-04-13T00:11:58.458Z,13.65
2023-04-13T00:12:38.571Z,13.63
2023-04-13T00:13:19.421Z,13.64
2023-04-13T00:13:59.739Z,13.70
2023-04-13T00:14:40.437Z,13.64
2023-04-13T00:15:28.075Z,13.62
2023-04-13T00:16:09.397Z,13.72
2023-04-13T00:16:50.192Z,13.75
2023-04-13T00:17:33.553Z,13.72
2023-04-13T00:18:13.554Z,13.66
2023-04-13T00:18:54.429Z,13.72
2023-04-13T00:19:36.716Z,13.75
2023-04-13T00:20:21.422Z,13.76
2023-04-13T00:21:01.520Z,13.72
2023-04-13T00:21:43.504Z,13.75
2023-04-13T00:22:23.731Z,13.77
2023-04-13T00:23:04.465Z,13.82
2023-04-13T00:23:44.745Z,13.82
2023-04-13T00:24:26.469Z,13.76
2023-04-13T00:25:06.536Z,13.76
2023-04-13T00:25:46.403Z,13.84
2023-04-13T00:26:26.520Z,13.85
2023-04-13T00:27:07.471Z,13.76
2023-04-13T00:27:49.543Z,13.67
2023-04-13T00:28:30.432Z,13.78
2023-04-13T00:29:10.493Z,13.80
2023-04-13T00:29:50.422Z,13.80
2023-04-13T00:30:30.529Z,13.69
2023-04-13T00:31:11.497Z,13.74
2023-04-13T00:31:51.644Z,13.77
2023-04-13T00:32:33.452Z,13.73
2023-04-13T00:33:13.688Z,13.78
2023-04-13T00:33:54.421Z,13.79
2023-04-13T00:34:34.524Z,13.78
2023-04-13T00:35:17.368Z,13.75
2023-04-13T00:35:57.546Z,13.81
2023-04-13T00:36:37.405Z,13.76
2023-04-13T00:37:18.678Z,13.80
2023-04-13T00:37:59.377Z,13.69
2023-04-13T00:38:40.595Z,13.75
2023-04-13T00:39:22.523Z,13.75
2023-04-13T00:40:06.037Z,13.78
2023-04-13T00:40:47.409Z,13.77
2023-04-13T00:41:27.834Z,13.79
2023-04-13T00:42:08.382Z,13.75
2023-04-13T00:43:04.453Z,13.73
2023-04-13T00:43:59.639Z,13.71
2023-04-13T00:44:46.431Z,13.76
2023-04-13T00:45:20.500Z,13.74
2023-04-13T00:46:07.481Z,13.68
2023-04-13T00:46:42.692Z,13.65
2023-04-13T00:47:35.476Z,13.72
2023-04-13T00:48:12.636Z,13.70
2023-04-13T00:49:02.351Z,13.65
2023-04-13T00:49:37.689Z,13.68
2023-04-13T00:50:17.446Z,13.63
2023-04-13T00:50:57.522Z,13.48
2023-04-13T00:51:39.379Z,13.53
2023-04-13T00:52:19.472Z,13.50
2023-04-13T00:52:59.615Z,13.48
2023-04-13T00:53:40.272Z,13.52
2023-04-13T00:54:22.400Z,13.55
2023-04-13T00:55:04.567Z,13.57
2023-04-13T00:55:48.417Z,13.65
2023-04-13T00:56:29.485Z,13.70
2023-04-13T00:57:10.399Z,13.60
2023-04-13T00:57:52.473Z,13.62
2023-04-13T00:58:34.386Z,13.55
2023-04-13T00:59:18.515Z,13.69
2023-04-13T00:59:59.381Z,13.70
2023-04-13T01:00:39.639Z,13.72
2023-04-13T01:01:19.522Z,13.66
2023-04-13T01:02:05.327Z,13.53
2023-04-13T01:02:49.613Z,13.55
2023-04-13T01:03:29.925Z,13.59
2023-04-13T01:04:12.418Z,13.44
2023-04-13T01:04:52.467Z,13.61
2023-04-13T01:05:36.409Z,13.59
2023-04-13T01:06:42.580Z,13.35
2023-04-13T01:08:07.356Z,13.41
2023-04-13T01:09:19.416Z,13.31
2023-04-13T01:10:52.380Z,13.42
2023-04-13T01:12:09.412Z,13.44
2023-04-13T01:13:37.358Z,13.39
2023-04-13T01:14:51.377Z,13.27
2023-04-13T01:15:52.477Z,13.32
2023-04-13T01:16:57.371Z,13.38
2023-04-13T01:17:40.410Z,13.42
2023-04-13T01:18:21.473Z,13.42
2023-04-13T01:19:02.362Z,13.43
2023-04-13T01:19:52.215Z,13.41
2023-04-13T01:20:35.347Z,13.31
2023-04-13T01:21:19.383Z,13.30
2023-04-13T01:22:01.367Z,13.18
2023-04-13T01:22:52.386Z,13.22
2023-04-13T01:24:16.358Z,13.28
2023-04-13T01:25:32.367Z,13.25
2023-04-13T01:26:29.382Z,13.18
2023-04-13T01:27:48.407Z,13.11
2023-04-13T01:28:29.675Z,13.15
2023-04-13T01:29:10.217Z,12.99
2023-04-13T01:29:53.380Z,13.14
2023-04-13T01:30:35.866Z,13.11
2023-04-13T01:31:18.365Z,13.02
2023-04-13T01:31:58.451Z,13.00
2023-04-13T01:32:39.408Z,13.07
2023-04-13T01:33:21.602Z,13.13
2023-04-13T01:34:02.391Z,13.03
2023-04-13T01:34:42.446Z,13.11
2023-04-13T01:35:25.398Z,13.01
2023-04-13T01:36:06.475Z,12.98
2023-04-13T01:36:48.370Z,12.97
2023-04-13T01:37:29.710Z,12.98
2023-04-13T01:38:11.372Z,13.00
2023-04-13T01:38:51.392Z,13.12
2023-04-13T01:39:32.403Z,13.12
2023-04-13T01:40:14.469Z,12.86
2023-04-13T01:40:55.359Z,12.92
2023-04-13T01:41:35.510Z,12.92
2023-04-13T01:42:15.331Z,12.82
2023-04-13T01:42:56.161Z,12.67
2023-04-13T01:43:37.374Z,12.72
2023-04-13T01:44:18.123Z,12.66
2023-04-13T01:44:59.576Z,12.61
2023-04-13T01:46:15.655Z,12.56
2023-04-13T01:47:00.353Z,12.57
2023-04-13T01:47:41.546Z,12.67
2023-04-13T01:48:39.336Z,12.62
2023-04-13T01:49:22.826Z,12.71
2023-04-13T01:50:24.367Z,12.68
2023-04-13T01:51:10.406Z,12.69
2023-04-13T01:51:52.328Z,12.74
2023-04-13T01:52:33.408Z,12.72
2023-04-13T01:53:18.337Z,12.81
2023-04-13T01:54:11.217Z,12.85
2023-04-13T01:54:53.402Z,12.89
2023-04-13T01:55:40.438Z,12.97
2023-04-13T01:56:34.324Z,12.99
2023-04-13T01:57:29.337Z,12.93
2023-04-13T01:58:25.363Z,13.06
2023-04-13T01:59:19.356Z,13.10
2023-04-13T02:00:13.333Z,13.12
2023-04-13T02:01:03.405Z,13.16
2023-04-13T02:01:37.403Z,13.16
2023-04-13T02:02:24.516Z,13.15
2023-04-13T02:02:58.601Z,13.19
2023-04-13T02:03:45.476Z,13.23
2023-04-13T02:04:19.960Z,13.25
2023-04-13T02:05:07.310Z,13.29
2023-04-13T02:05:42.433Z,13.24
2023-04-13T02:06:22.324Z,13.33
2023-04-13T02:07:02.727Z,13.36
2023-04-13T02:07:43.326Z,13.37
2023-04-13T02:08:23.816Z,13.43
2023-04-13T02:09:04.337Z,13.44
2023-04-13T02:09:45.304Z,13.41
2023-04-13T02:10:27.318Z,13.44
2023-04-13T02:11:08.608Z,13.44
2023-04-13T02:11:50.364Z,13.43
2023-04-13T02:12:30.400Z,13.50
2023-04-13T02:13:11.337Z,13.52
2023-04-13T02:13:51.534Z,13.54
2023-04-13T02:14:31.323Z,13.42
2023-04-13T02:15:12.422Z,13.48
2023-04-13T02:15:53.294Z,13.50
2023-04-13T02:16:33.440Z,13.51
2023-04-13T02:17:15.339Z,13.53
2023-04-13T02:17:55.513Z,13.53
2023-04-13T02:18:35.432Z,13.52
2023-04-13T02:19:15.368Z,13.55
2023-04-13T02:19:56.361Z,13.59
2023-04-13T02:20:40.476Z,13.59
2023-04-13T02:21:21.307Z,13.60
2023-04-13T02:22:01.475Z,13.58
2023-04-13T02:22:41.348Z,13.54
2023-04-13T02:23:21.399Z,13.57
2023-04-13T02:24:01.443Z,13.69
2023-04-13T02:24:42.241Z,13.48
2023-04-13T02:25:24.299Z,13.63
2023-04-13T02:26:07.394Z,13.64
2023-04-13T02:26:48.295Z,13.64
2023-04-13T02:27:29.026Z,13.63
2023-04-13T02:28:09.363Z,13.68
2023-04-13T02:28:51.422Z,13.72
2023-04-13T02:29:32.375Z,13.77
2023-04-13T02:30:19.414Z,13.72
2023-04-13T02:31:03.353Z,13.78
2023-04-13T02:31:44.241Z,13.80
2023-04-13T02:32:25.305Z,13.84
2023-04-13T02:33:05.400Z,13.84
2023-04-13T02:33:46.423Z,13.79
2023-04-13T02:34:26.442Z,13.75
2023-04-13T02:35:07.275Z,13.82
2023-04-13T02:35:47.373Z,13.80
2023-04-13T02:36:28.627Z,13.75
2023-04-13T02:37:09.556Z,13.82
2023-04-13T02:37:50.315Z,13.77
2023-04-13T02:38:30.393Z,13.82
2023-04-13T02:39:10.304Z,13.78
2023-04-13T02:39:50.354Z,13.80
2023-04-13T02:40:30.397Z,13.68
2023-04-13T02:41:10.805Z,13.77
2023-04-13T02:41:51.286Z,13.73
2023-04-13T02:42:31.429Z,13.76
2023-04-13T02:43:12.290Z,13.72
2023-04-13T02:43:52.579Z,13.78
2023-04-13T02:44:33.387Z,13.82
2023-04-13T02:45:17.998Z,13.86
2023-04-13T02:45:59.388Z,13.88
2023-04-13T02:46:40.131Z,13.90
2023-04-13T02:47:20.344Z,13.91
2023-04-13T02:48:00.464Z,13.94
2023-04-13T02:48:40.277Z,13.88
2023-04-13T02:49:20.415Z,13.88
2023-04-13T02:50:01.308Z,13.92
2023-04-13T02:50:41.535Z,13.95
2023-04-13T02:51:21.243Z,13.88
2023-04-13T02:52:01.521Z,14.02
2023-04-13T02:52:41.306Z,14.01
2023-04-13T02:53:24.639Z,13.98
2023-04-13T02:54:05.328Z,14.00
2023-04-13T02:54:46.680Z,13.97
2023-04-13T02:55:27.321Z,14.07
2023-04-13T02:56:07.768Z,14.06
2023-04-13T02:56:47.276Z,13.92
2023-04-13T02:57:28.358Z,13.97
2023-04-13T02:58:11.302Z,13.97
2023-04-13T02:58:51.725Z,14.02
2023-04-13T02:59:32.309Z,14.00
2023-04-13T03:00:16.052Z,14.02
2023-04-13T03:00:57.341Z,13.89
2023-04-13T03:01:37.646Z,13.95
2023-04-13T03:02:21.306Z,13.96
2023-04-13T03:03:03.495Z,13.96
2023-04-13T03:03:44.266Z,13.77
2023-04-13T03:04:24.437Z,13.85
2023-04-13T03:05:06.332Z,13.88
2023-04-13T03:05:46.396Z,13.92
2023-04-13T03:06:29.291Z,13.94
2023-04-13T03:07:14.307Z,13.95
2023-04-13T03:07:55.261Z,13.96
2023-04-13T03:08:35.509Z,13.95
2023-04-13T03:09:15.275Z,14.00
2023-04-13T03:09:55.339Z,14.03
2023-04-13T03:10:38.315Z,14.00
2023-04-13T03:11:18.404Z,14.00
2023-04-13T03:11:59.289Z,13.86
2023-04-13T03:12:39.407Z,13.89
2023-04-13T03:13:19.264Z,13.92
2023-04-13T03:14:01.613Z,13.95
2023-04-13T03:14:43.271Z,14.00
2023-04-13T03:15:24.548Z,13.96
2023-04-13T03:16:07.291Z,14.01
2023-04-13T03:16:47.408Z,13.93
2023-04-13T03:17:27.401Z,13.95
2023-04-13T03:18:07.389Z,13.99
2023-04-13T03:18:49.227Z,13.96
2023-04-13T03:19:30.230Z,14.01
2023-04-13T03:20:15.270Z,13.95
2023-04-13T03:20:55.770Z,13.99
2023-04-13T03:21:36.248Z,13.88
2023-04-13T03:22:16.411Z,13.98
2023-04-13T03:22:58.272Z,14.01
2023-04-13T03:23:38.330Z,14.03
2023-04-13T03:24:19.243Z,13.97
2023-04-13T03:24:59.335Z,14.01
2023-04-13T03:25:40.243Z,14.03
2023-04-13T03:26:20.960Z,14.02
2023-04-13T03:27:03.256Z,13.96
2023-04-13T03:27:43.373Z,14.01
2023-04-13T03:28:26.268Z,13.86
2023-04-13T03:29:06.999Z,14.00
2023-04-13T03:29:48.256Z,14.07
2023-04-13T03:30:29.219Z,14.14
2023-04-13T03:31:10.281Z,14.08
2023-04-13T03:31:51.148Z,14.09
2023-04-13T03:32:32.392Z,13.88
2023-04-13T03:33:12.334Z,14.06
2023-04-13T03:33:53.300Z,14.05
2023-04-13T03:34:33.415Z,14.05
2023-04-13T03:35:14.219Z,13.88
2023-04-13T03:35:54.349Z,13.95
2023-04-13T03:36:35.219Z,13.92
2023-04-13T03:37:15.762Z,13.96
2023-04-13T03:37:57.293Z,14.01
2023-04-13T03:38:37.522Z,13.82
2023-04-13T03:39:18.269Z,13.92
2023-04-13T03:39:59.342Z,13.89
2023-04-13T03:40:39.240Z,13.99
2023-04-13T03:41:19.338Z,14.03
2023-04-13T03:41:59.244Z,13.99
2023-04-13T03:42:39.504Z,13.93
2023-04-13T03:43:20.262Z,13.88
2023-04-13T03:44:00.595Z,13.92
2023-04-13T03:44:41.310Z,13.89
2023-04-13T03:45:21.406Z,13.92
2023-04-13T03:46:01.262Z,13.89
2023-04-13T03:46:42.566Z,13.89
2023-04-13T03:47:23.330Z,13.82
2023-04-13T03:48:03.598Z,13.89
2023-04-13T03:48:43.220Z,13.73
2023-04-13T03:49:23.312Z,13.68
2023-04-13T03:50:03.235Z,13.68
2023-04-13T03:50:43.333Z,13.70
2023-04-13T03:51:28.287Z,13.60
2023-04-13T03:52:08.331Z,13.61
2023-04-13T03:52:48.227Z,13.55
2023-04-13T03:53:28.335Z,13.55
2023-04-13T03:54:08.222Z,13.55
2023-04-13T03:54:48.398Z,13.62
2023-04-13T03:55:29.308Z,13.60
2023-04-13T03:56:09.623Z,13.64
2023-04-13T03:56:49.280Z,13.70
2023-04-13T03:57:29.315Z,13.72
2023-04-13T03:58:10.605Z,13.76
2023-04-13T03:58:50.357Z,13.62
2023-04-13T03:59:31.213Z,13.66
2023-04-13T04:00:14.392Z,13.66
2023-04-13T04:00:54.290Z,13.68
2023-04-13T04:01:34.366Z,13.73
2023-04-13T04:02:15.252Z,13.77
2023-04-13T04:02:55.593Z,13.73
2023-04-13T04:03:36.352Z,13.73
2023-04-13T04:04:16.609Z,13.80
2023-04-13T04:04:57.266Z,13.79
2023-04-13T04:05:40.532Z,13.84
2023-04-13T04:06:20.236Z,13.78
2023-04-13T04:07:00.313Z,13.83
2023-04-13T04:07:41.242Z,13.85
2023-04-13T04:08:21.364Z,13.77
2023-04-13T04:09:01.187Z,13.86
2023-04-13T04:09:41.698Z,13.86
2023-04-13T04:10:24.231Z,13.78
2023-04-13T04:11:04.871Z,13.68
2023-04-13T04:11:46.245Z,13.60
2023-04-13T04:12:26.358Z,13.75
2023-04-13T04:13:06.239Z,13.77
2023-04-13T04:13:46.365Z,13.76
2023-04-13T04:14:27.260Z,13.78
2023-04-13T04:15:07.848Z,13.78
2023-04-13T04:15:49.243Z,13.71
2023-04-13T04:16:30.134Z,13.65
2023-04-13T04:17:10.204Z,13.57
2023-04-13T04:17:51.307Z,13.57
2023-04-13T04:18:31.205Z,13.55
2023-04-13T04:19:11.342Z,13.52
2023-04-13T04:19:52.247Z,13.61
2023-04-13T04:20:33.362Z,13.60
2023-04-13T04:21:14.288Z,13.65
2023-04-13T04:21:57.837Z,13.66
2023-04-13T04:22:41.220Z,13.69
2023-04-13T04:23:23.117Z,13.64
2023-04-13T04:24:04.227Z,13.73
2023-04-13T04:24:44.859Z,13.68
2023-04-13T04:25:29.234Z,13.72
2023-04-13T04:26:09.317Z,13.73
2023-04-13T04:26:49.227Z,13.78
2023-04-13T04:27:31.713Z,13.81
2023-04-13T04:28:14.173Z,13.77
2023-04-13T04:29:01.553Z,13.78
2023-04-13T04:29:42.218Z,13.80
2023-04-13T04:30:22.503Z,13.81
2023-04-13T04:31:03.194Z,13.81
2023-04-13T04:31:44.256Z,13.83
2023-04-13T04:32:26.435Z,13.78
2023-04-13T04:33:10.673Z,13.84
2023-04-13T04:33:51.263Z,13.87
2023-04-13T04:34:31.705Z,13.80
2023-04-13T04:35:14.274Z,13.83
2023-04-13T04:35:58.444Z,13.84
2023-04-13T04:36:39.180Z,13.70
2023-04-13T04:37:23.349Z,13.86
2023-04-13T04:38:04.224Z,13.84
2023-04-13T04:38:44.414Z,13.87
2023-04-13T04:39:29.429Z,13.84
2023-04-13T04:40:11.318Z,13.90
2023-04-13T04:40:52.284Z,13.88
2023-04-13T04:41:32.892Z,13.86
2023-04-13T04:42:14.235Z,13.93
2023-04-13T04:42:54.287Z,13.92
2023-04-13T04:43:37.223Z,13.95
2023-04-13T04:44:17.312Z,13.93
2023-04-13T04:44:58.355Z,13.89
2023-04-13T04:45:38.620Z,13.94
2023-04-13T04:46:22.377Z,13.90
2023-04-13T04:47:04.311Z,13.88
2023-04-13T04:47:48.157Z,13.85
2023-04-13T04:48:31.722Z,13.91
2023-04-13T04:49:13.167Z,13.89
2023-04-13T04:49:53.230Z,13.96
2023-04-13T04:50:34.231Z,13.92
2023-04-13T04:51:14.279Z,13.84
2023-04-13T04:51:58.253Z,13.89
2023-04-13T04:52:38.665Z,13.86
2023-04-13T04:53:19.207Z,13.89
2023-04-13T04:54:02.135Z,13.87
2023-04-13T04:54:43.144Z,13.93
2023-04-13T04:55:23.295Z,13.86
2023-04-13T04:56:03.173Z,13.86
2023-04-13T04:56:43.261Z,13.79
2023-04-13T04:57:25.163Z,13.66
2023-04-13T04:58:05.355Z,13.58
2023-04-13T04:58:45.183Z,13.62
2023-04-13T04:59:26.291Z,13.57
2023-04-13T05:00:09.386Z,13.56
2023-04-13T05:00:49.879Z,13.55
2023-04-13T05:01:33.334Z,13.57
2023-04-13T05:02:13.346Z,13.60
2023-04-13T05:02:55.251Z,13.62
2023-04-13T05:03:35.250Z,13.63
2023-04-13T05:04:16.164Z,13.65
2023-04-13T05:04:57.401Z,13.66
2023-04-13T05:05:38.222Z,13.61
2023-04-13T05:06:18.326Z,13.68
2023-04-13T05:06:58.164Z,13.64
2023-04-13T05:07:38.363Z,13.70
2023-04-13T05:08:18.145Z,13.62
2023-04-13T05:08:58.636Z,13.72
2023-04-13T05:09:41.167Z,13.70
2023-04-13T05:10:24.478Z,13.72
2023-04-13T05:11:05.232Z,13.71
2023-04-13T05:11:45.527Z,13.77
2023-04-13T05:12:25.183Z,13.79
2023-04-13T05:13:05.258Z,13.84
2023-04-13T05:13:46.199Z,13.81
2023-04-13T05:14:26.550Z,13.86
2023-04-13T05:15:06.153Z,13.79
2023-04-13T05:15:46.394Z,13.87
2023-04-13T05:16:26.201Z,13.92
2023-04-13T05:17:07.360Z,13.89
2023-04-13T05:17:48.177Z,13.77
2023-04-13T05:18:28.255Z,13.88
2023-04-13T05:19:10.139Z,13.86
2023-04-13T05:19:51.244Z,13.96
2023-04-13T05:20:34.180Z,13.94
2023-04-13T05:21:14.692Z,13.96
2023-04-13T05:21:56.158Z,13.91
2023-04-13T05:22:36.424Z,13.94
2023-04-13T05:23:16.188Z,13.88
2023-04-13T05:23:56.978Z,13.89
2023-04-13T05:24:37.190Z,13.89
2023-04-13T05:25:17.424Z,13.91
2023-04-13T05:26:00.280Z,13.93
2023-04-13T05:26:41.311Z,13.96
2023-04-13T05:27:22.184Z,13.90
2023-04-13T05:28:02.354Z,13.90
2023-04-13T05:28:42.238Z,13.90
2023-04-13T05:29:22.308Z,13.95
2023-04-13T05:30:04.140Z,13.92
2023-04-13T05:30:44.646Z,13.97
2023-04-13T05:31:24.288Z,13.95
2023-04-13T05:32:07.664Z,13.86
2023-04-13T05:32:50.343Z,14.04
2023-04-13T05:33:31.139Z,14.06
2023-04-13T05:34:12.220Z,14.11
2023-04-13T05:34:52.596Z,14.02
2023-04-13T05:35:35.228Z,14.04
2023-04-13T05:36:16.273Z,14.04
2023-04-13T05:36:57.233Z,14.05
2023-04-13T05:37:50.513Z,14.00
2023-04-13T05:38:31.187Z,14.06
2023-04-13T05:39:11.199Z,14.06
2023-04-13T05:39:52.137Z,14.06
2023-04-13T05:40:36.177Z,14.05
2023-04-13T05:41:17.170Z,13.99
2023-04-13T05:42:03.246Z,14.01
2023-04-13T05:42:44.114Z,14.05
2023-04-13T05:43:24.313Z,14.14
2023-04-13T05:44:04.189Z,14.19
2023-04-13T05:44:44.633Z,14.22
2023-04-13T05:45:26.274Z,14.17
2023-04-13T05:46:06.757Z,14.27
2023-04-13T05:46:48.268Z,14.31
2023-04-13T05:47:29.391Z,14.24
2023-04-13T05:48:11.102Z,14.22
2023-04-13T05:48:51.482Z,14.06
2023-04-13T05:49:31.130Z,14.16
2023-04-13T05:50:13.011Z,14.19
2023-04-13T05:50:54.235Z,14.22
2023-04-13T05:51:48.175Z,14.15
2023-04-13T05:52:42.154Z,14.30
2023-04-13T05:53:36.187Z,14.36
2023-04-13T05:54:30.087Z,14.22
2023-04-13T05:55:26.127Z,14.39
2023-04-13T05:56:14.162Z,14.48
2023-04-13T05:56:48.266Z,14.44
2023-04-13T05:57:35.126Z,14.50
2023-04-13T05:58:11.027Z,14.53
2023-04-13T05:59:00.325Z,14.51
2023-04-13T05:59:34.771Z,14.62
2023-04-13T06:00:25.140Z,14.58
2023-04-13T06:00:59.224Z,14.54
2023-04-13T06:02:43.224Z,14.66
2023-04-13T06:03:17.928Z,14.67
2023-04-13T06:04:07.190Z,14.70
2023-04-13T06:04:41.844Z,14.74
2023-04-13T06:05:31.113Z,14.80
2023-04-13T06:06:06.241Z,14.80
2023-04-13T06:06:54.152Z,14.59
2023-04-13T06:07:29.190Z,14.79
2023-04-13T06:08:10.102Z,14.79
2023-04-13T06:08:53.075Z,14.71
2023-04-13T06:09:34.151Z,14.73
2023-04-13T06:10:16.825Z,14.75
2023-04-13T06:10:58.139Z,14.86
2023-04-13T06:11:38.242Z,14.86
2023-04-13T06:12:19.103Z,14.93
2023-04-13T06:12:59.389Z,14.90
2023-04-13T06:13:39.146Z,14.93
2023-04-13T06:14:22.443Z,14.99
2023-04-13T06:15:03.148Z,14.87
2023-04-13T06:15:44.285Z,14.90
2023-04-13T06:16:28.167Z,15.01
2023-04-13T06:17:08.342Z,14.95
2023-04-13T06:17:49.129Z,14.95
2023-04-13T06:18:31.218Z,14.98
2023-04-13T06:19:12.177Z,15.02
2023-04-13T06:19:52.205Z,15.00
2023-04-13T06:20:33.100Z,15.03
2023-04-13T06:21:14.250Z,14.89
2023-04-13T06:21:54.219Z,14.96
2023-04-13T06:22:34.224Z,14.98
2023-04-13T06:23:14.144Z,14.99
2023-04-13T06:23:54.198Z,15.06
2023-04-13T06:24:35.067Z,15.04
2023-04-13T06:25:16.760Z,14.99
2023-04-13T06:25:58.093Z,15.09
2023-04-13T06:26:38.545Z,15.09
2023-04-13T06:27:19.114Z,15.17
2023-04-13T06:28:00.211Z,15.18
2023-04-13T06:28:41.147Z,15.22
2023-04-13T06:29:21.289Z,15.24
2023-04-13T06:30:03.111Z,15.13
2023-04-13T06:30:43.527Z,15.11
2023-04-13T06:31:23.247Z,14.90
2023-04-13T06:32:04.498Z,14.86
2023-04-13T06:32:45.136Z,14.87
2023-04-13T06:33:26.299Z,14.81
2023-04-13T06:34:07.052Z,14.77
2023-04-13T06:34:47.223Z,14.87
2023-04-13T06:35:27.122Z,14.73
2023-04-13T06:36:07.509Z,14.76
2023-04-13T06:36:48.063Z,14.79
2023-04-13T06:37:22.283Z,14.80
2023-04-13T06:38:10.148Z,14.69
2023-04-13T06:38:44.272Z,14.59
2023-04-13T06:39:32.811Z,14.60
2023-04-13T06:40:12.572Z,14.73
2023-04-13T06:40:54.153Z,14.73
2023-04-13T06:41:28.234Z,14.82
2023-04-13T06:42:02.175Z,14.85
2023-04-13T06:42:43.068Z,14.81
2023-04-13T06:43:29.122Z,14.78
2023-04-13T06:44:05.046Z,14.87
2023-04-13T06:44:46.060Z,14.90
2023-04-13T06:45:20.686Z,15.00
2023-04-13T06:46:06.261Z,15.04
2023-04-13T06:46:46.329Z,15.02
2023-04-13T06:47:30.760Z,15.13
2023-04-13T06:48:12.224Z,15.13
2023-04-13T06:48:53.050Z,15.11
2023-04-13T06:49:33.921Z,15.14
2023-04-13T06:50:17.075Z,15.11
2023-04-13T06:50:57.533Z,15.17
2023-04-13T06:51:39.088Z,15.18
2023-04-13T06:52:19.160Z,15.26
2023-04-13T06:53:00.679Z,15.33
2023-04-13T06:53:41.460Z,15.36
2023-04-13T06:54:22.070Z,15.33
2023-04-13T06:55:02.278Z,15.39
2023-04-13T06:55:42.051Z,15.44
2023-04-13T06:56:23.192Z,15.43
2023-04-13T06:57:04.070Z,15.35
2023-04-13T06:57:44.227Z,15.40
2023-04-13T06:58:24.047Z,15.45
2023-04-13T06:59:04.326Z,15.52
2023-04-13T06:59:45.069Z,15.37
2023-04-13T07:00:29.628Z,15.42
2023-04-13T07:01:11.227Z,15.30
2023-04-13T07:01:51.505Z,15.33
2023-04-13T07:02:35.276Z,15.33
2023-04-13T07:03:15.272Z,15.39
2023-04-13T07:03:55.087Z,15.40
2023-04-13T07:04:37.194Z,15.52
2023-04-13T07:05:18.096Z,15.62
2023-04-13T07:05:58.203Z,15.51
2023-04-13T07:06:39.078Z,15.76
2023-04-13T07:07:19.196Z,15.80
2023-04-13T07:07:59.125Z,15.66
2023-04-13T07:08:41.336Z,15.72
2023-04-13T07:09:22.120Z,15.77
2023-04-13T07:10:03.201Z,15.71
2023-04-13T07:10:46.045Z,15.82
2023-04-13T07:11:26.601Z,15.84
2023-04-13T07:12:11.095Z,15.88
2023-04-13T07:12:52.118Z,15.82
2023-04-13T07:13:33.055Z,15.79
2023-04-13T07:14:13.243Z,15.74
2023-04-13T07:14:54.057Z,15.70
2023-04-13T07:15:34.223Z,15.73
2023-04-13T07:16:16.119Z,15.70
2023-04-13T07:17:00.067Z,15.74
2023-04-13T07:17:44.111Z,15.86
2023-04-13T07:18:24.138Z,15.84
2023-04-13T07:19:07.095Z,15.85
2023-04-13T07:19:53.156Z,15.78
2023-04-13T07:20:33.060Z,15.81
2023-04-13T07:21:14.195Z,15.68
2023-04-13T07:21:54.086Z,15.59
2023-04-13T07:22:38.239Z,15.58
2023-04-13T07:23:18.047Z,15.73
2023-04-13T07:23:58.144Z,15.82
2023-04-13T07:24:41.038Z,15.73
2023-04-13T07:25:22.132Z,15.75
2023-04-13T07:26:02.061Z,15.64
2023-04-13T07:26:42.241Z,15.79
2023-04-13T07:27:22.097Z,15.73
2023-04-13T07:28:02.306Z,15.73
2023-04-13T07:28:42.081Z,15.60
2023-04-13T07:29:23.155Z,15.81
2023-04-13T07:30:03.089Z,15.83
2023-04-13T07:30:43.161Z,15.84
2023-04-13T07:31:23.117Z,15.87
2023-04-13T07:32:08.308Z,15.79
2023-04-13T07:32:48.113Z,15.91
2023-04-13T07:33:29.147Z,15.91
2023-04-13T07:34:10.022Z,15.93
2023-04-13T07:34:50.128Z,15.81
2023-04-13T07:35:30.138Z,16.05
2023-04-13T07:36:11.512Z,16.08
2023-04-13T07:36:53.074Z,16.17
2023-04-13T07:37:34.206Z,16.29
2023-04-13T07:38:14.104Z,16.25
2023-04-13T07:38:54.248Z,16.37
2023-04-13T07:39:35.066Z,16.27
2023-04-13T07:40:16.704Z,16.33
2023-04-13T07:40:58.111Z,16.26
2023-04-13T07:41:39.280Z,16.26
2023-04-13T07:42:19.072Z,16.22
2023-04-13T07:42:59.178Z,16.15
2023-04-13T07:43:41.058Z,16.07
2023-04-13T07:44:21.218Z,16.15
2023-04-13T07:45:13.295Z,16.17
2023-04-13T07:45:47.186Z,16.03
2023-04-13T07:46:33.228Z,15.85
2023-04-13T07:47:14.234Z,15.73
2023-04-13T07:47:55.167Z,15.66
2023-04-13T07:48:36.214Z,15.75
2023-04-13T07:49:16.303Z,15.76
2023-04-13T07:49:57.115Z,15.64
2023-04-13T07:50:37.976Z,15.74
2023-04-13T07:51:28.275Z,15.59
2023-04-13T07:52:09.059Z,15.59
2023-04-13T07:52:50.128Z,15.44
2023-04-13T07:53:31.006Z,15.39
2023-04-13T07:54:11.168Z,15.50
2023-04-13T07:54:51.078Z,15.50
2023-04-13T07:55:31.146Z,15.43
2023-04-13T07:56:12.057Z,15.49
2023-04-13T07:56:52.332Z,15.29
2023-04-13T07:57:34.074Z,15.34
2023-04-13T07:58:14.362Z,15.44
2023-04-13T07:58:54.103Z,15.37
2023-04-13T07:59:34.184Z,15.44
2023-04-13T08:00:15.053Z,15.34
2023-04-13T08:00:55.190Z,15.48
2023-04-13T08:01:36.000Z,15.48
2023-04-13T08:02:48.195Z,15.51
2023-04-13T08:03:28.286Z,15.47
2023-04-13T08:04:09.216Z,15.37
2023-04-13T08:04:49.281Z,15.43
2023-04-13T08:05:30.001Z,15.48
2023-04-13T08:06:16.804Z,15.46
2023-04-13T08:06:58.054Z,15.49
2023-04-13T08:07:38.086Z,15.44
2023-04-13T08:08:18.068Z,15.54
2023-04-13T08:09:00.329Z,15.57
2023-04-13T08:09:48.984Z,15.57
2023-04-13T08:10:29.139Z,15.52
2023-04-13T08:11:10.055Z,15.32
2023-04-13T08:11:50.390Z,15.34
2023-04-13T08:12:31.082Z,15.46
2023-04-13T08:13:11.371Z,15.39
2023-04-13T08:13:53.041Z,15.40
2023-04-13T08:14:33.146Z,15.55
2023-04-13T08:15:14.049Z,15.64
2023-04-13T08:15:57.265Z,15.46
2023-04-13T08:16:41.089Z,15.60
2023-04-13T08:17:22.454Z,15.66
2023-04-13T08:18:05.058Z,15.61
2023-04-13T08:18:45.165Z,15.70
2023-04-13T08:19:25.054Z,15.40
2023-04-13T08:20:08.337Z,15.27
2023-04-13T08:20:49.080Z,15.34
2023-04-13T08:21:30.084Z,15.35
2023-04-13T08:22:11.010Z,15.25
2023-04-13T08:22:52.254Z,15.40
2023-04-13T08:23:32.011Z,15.46
2023-04-13T08:24:13.220Z,15.52
2023-04-13T08:24:53.050Z,15.44
2023-04-13T08:25:34.450Z,15.49
2023-04-13T08:26:26.035Z,15.41
2023-04-13T08:27:06.118Z,15.38
2023-04-13T08:27:46.158Z,15.38
2023-04-13T08:28:26.101Z,15.40
2023-04-13T08:29:06.058Z,15.48
2023-04-13T08:29:48.354Z,15.47
2023-04-13T08:30:29.111Z,15.51
2023-04-13T08:31:09.129Z,15.53
2023-04-13T08:31:49.048Z,15.46
2023-04-13T08:32:29.190Z,15.51
2023-04-13T08:33:10.022Z,15.57
2023-04-13T08:33:51.527Z,15.66
2023-04-13T08:34:32.980Z,15.77
2023-04-13T08:35:14.343Z,15.83
2023-04-13T08:35:55.031Z,15.73
2023-04-13T08:36:35.179Z,15.75
2023-04-13T08:37:16.037Z,15.72
2023-04-13T08:37:57.077Z,15.70
2023-04-13T08:38:35.704Z,15.81
2023-04-13T08:39:19.026Z,15.91
2023-04-13T08:39:56.712Z,15.90
2023-04-13T08:40:37.437Z,15.97
2023-04-13T08:41:17.034Z,15.93
2023-04-13T08:41:53.049Z,15.97
2023-04-13T08:42:30.818Z,15.93
2023-04-13T08:43:11.967Z,15.83
2023-04-13T08:43:46.887Z,15.84
2023-04-13T08:44:20.819Z,15.95
2023-04-13T08:45:08.028Z,16.00
2023-04-13T08:45:43.276Z,15.80
2023-04-13T08:46:26.104Z,15.68
2023-04-13T08:47:07.345Z,15.69
2023-04-13T08:47:48.175Z,15.66
2023-04-13T08:48:30.258Z,15.74
2023-04-13T08:49:16.922Z,15.76
2023-04-13T08:49:58.601Z,15.88
2023-04-13T08:50:38.924Z,15.89
2023-04-13T08:51:21.128Z,15.86
2023-04-13T08:52:06.091Z,15.96
2023-04-13T08:52:46.129Z,15.84
2023-04-13T08:53:27.183Z,15.70
2023-04-13T08:54:08.128Z,15.80
2023-04-13T08:54:47.926Z,15.85
2023-04-13T08:55:29.845Z,16.01
2023-04-13T08:56:10.018Z,16.10
2023-04-13T08:56:52.100Z,16.19
2023-04-13T08:57:31.986Z,16.26
2023-04-13T08:58:13.871Z,16.19
2023-04-13T08:58:55.977Z,16.18
2023-04-13T08:59:38.713Z,16.16
2023-04-13T09:00:23.945Z,16.22
2023-04-13T09:01:05.235Z,16.02
2023-04-13T09:01:46.064Z,16.19
2023-04-13T09:02:30.958Z,16.30
2023-04-13T09:03:14.573Z,16.34
2023-04-13T09:04:02.901Z,16.31
2023-04-13T09:04:46.162Z,16.32